AirNav   Air Wisconsin Up To $57,000 Bonus
 
 1393 users online  

NC25 Gold Hill Airport
Gold Hill, North Carolina, USA

GOING TO GOLD HILL?


FAA INFORMATION EFFECTIVE 08 SEPTEMBER 2022

Location

FAA Identifier: NC25
Lat/Long: 35-30-32.5030N 080-18-40.2060W
35-30.541717N 080-18.670100W
35.5090286,-80.3111683
(estimated)
Elevation: 720 ft. / 219.5 m (surveyed)
Variation: 06W (1985)
From city: 2 miles SE of GOLD HILL, NC
Time zone: UTC -4 (UTC -5 during Standard Time)
Zip code: 28071

Airport Operations

Airport use: Private use. Permission required prior to landing
Activation date: 03/1976
Control tower: no
ARTCC: ATLANTA CENTER
FSS: RALEIGH FLIGHT SERVICE STATION
Attendance: 0830-DUSK
Wind indicator: yes
Segmented circle: no
Lights: ACTVT LIRL RWY 09/27 - 122.975, 5 CLICKS IN 5 SCNDS.

Airport Communications

UNICOM: 122.975
WX AWOS-3 at VUJ (10 nm SE): 128.175 (704-986-2097)
WX AWOS-3 at RUQ (13 nm NW): 118.175 (704-637-6197)
WX AWOS-3 at EXX (16 nm N): 119.825 (336-956-2967)

Nearby radio navigation aids

VOR radial/distance  VOR name  Freq  Var
GSOr210/36.1GREENSBORO VORTAC116.2003W
CLTr064/36.7CHARLOTTE VOR/DME115.0005W
LIBr245/38.6LIBERTY VORTAC113.0003W
SDZr299/39.5SANDHILLS VORTAC111.8003W

 
NDB name  Hdg/Dist  Freq  Var  ID
ALLER282/11.234606WVU ...- ..-

Airport Services

Parking: hangars

Runway Information

Runway 9/27

Dimensions: 3000 x 30 ft. / 914 x 9 m
Surface: asphalt
Runway edge lights: low intensity
RUNWAY 9  RUNWAY 27
Traffic pattern: leftleft
Obstructions: none30 ft. trees, 500 ft. from runway, 16:1 slope to clear

Airport Ownership and Management from official FAA records

Ownership: Privately-owned
Owner: GOLD HILL HOMEOWNERS ASSOCIATION
295 FINE ST
GOLD HILL, NC 28071
Phone (704) 209-1962
Manager: JOHN CIOLINO
245 FINE STREET
GOLD HILL, NC 28071
Phone (704) 209-1962
JOHN B. CIOLINO 285 AVIATION LANE GOLD HILL, NC 28071 704-209-1962

Airport Operational Statistics

Aircraft based on the field: 17
Single engine airplanes: 16
Helicopters: 1
    

Additional Remarks

RY 09, 50 FT TREES 170 FT FM THR ON CNTRLN.
FOR CD CTC CHARLOTTE APCH AT 704-359-0241.

Instrument Procedures

There are no published instrument procedures at NC25.

Some nearby airports with instrument procedures:

KVUJ - Stanly County Airport (10 nm SE)
KRUQ - Mid-Carolina Regional Airport (13 nm NW)
KEXX - Davidson County Airport (16 nm N)
KJQF - Concord-Padgett Regional Airport (21 nm W)
KHBI - Asheboro Regional Airport (22 nm NE)
 
Loc | Ops | Rwys | IFR | FBO | Links
Com | Nav | Svcs | Stats | Notes
Area around NC25 (Gold Hill Airport)
 
Road maps at: MapQuest Bing Google
 
Aerial photo
WARNING: Photo may not be current or correct
Aerial photo of NC25 (Gold Hill Airport)
Photo by Ron Schreck
Photo taken 21-May-2014
looking northwest.

Do you have a better or more recent aerial photo of Gold Hill Airport that you would like to share? If so, please send us your photo.

 
Sectional chart

 
Airport distance calculator
Flying to Gold Hill Airport? Find the distance to fly.

From to NC25

Sunrise and sunset
Times for 05-Oct-2022
 Local
(UTC-4)
 Zulu
(UTC)
Morning civil twilight06:5510:55
Sunrise07:2011:20
Sunset18:5922:59
Evening civil twilight19:2523:25

Current date and time
Zulu (UTC)  05-Oct-2022 21:54:36
Local (UTC-4)  05-Oct-2022 17:54:36
 
METAR
KVUJ 
10nm SE 
052135Z AUTO 33004KT 10SM CLR 23/09 A3002 RMK AO2 T02300092
KRUQ 
13nm NW 
052135Z AUTO 36005G14KT 10SM CLR 23/09 A2998 RMK AO2 T02260092
KEXX 
16nm N 
052135Z AUTO 00000KT 10SM CLR 23/10 A2998 RMK AO2 T02260102
TAF
KCLT 
36nm SW 
051953Z 0520/0624 34006KT P6SM SKC FM060000 36003KT P6SM SKC FM061700 25005KT P6SM SKC
KINT 
38nm N 
051720Z 0518/0618 35006KT P6SM FEW060 FEW250
KGSO 
40nm NE 
051720Z 0518/0618 35007KT P6SM FEW060 FEW250
NOTAMs
Click for the latest NOTAMs
NOTAMs are issued by the DoD/FAA and will open in a separate window not controlled by AirNav.

 

 
 

Would you like to see your business listed on this page?

 If your business provides an interesting product or service to pilots, flight crews, aircraft, or users of the Gold Hill Airport, you should consider listing it here.  To start the listing process, click on the button below
 
Add a business
 

Other Pages about Gold Hill Airport

Update a link
 
Copyright © AirNav, LLC. All rights reserved. Privacy Policy  Contact